sensor_id;sensor_type;location;lat;lon;timestamp;P1;durP1;ratioP1;P2;durP2;ratioP2
34565;SDS011;20803;42.676;26.348;2023-08-08T00:01:14;1.90;;;1.73;;
34565;SDS011;20803;42.676;26.348;2023-08-08T00:03:39;1.67;;;1.57;;
34565;SDS011;20803;42.676;26.348;2023-08-08T00:06:05;4.73;;;2.23;;
34565;SDS011;20803;42.676;26.348;2023-08-08T00:08:30;3.37;;;2.03;;
34565;SDS011;20803;42.676;26.348;2023-08-08T00:10:56;1.83;;;1.73;;
34565;SDS011;20803;42.676;26.348;2023-08-08T00:13:21;1.73;;;1.63;;
34565;SDS011;20803;42.676;26.348;2023-08-08T00:15:47;3.33;;;2.00;;
34565;SDS011;20803;42.676;26.348;2023-08-08T00:18:12;2.23;;;1.67;;
34565;SDS011;20803;42.676;26.348;2023-08-08T00:20:37;2.13;;;1.93;;
34565;SDS011;20803;42.676;26.348;2023-08-08T00:23:03;2.30;;;1.80;;
34565;SDS011;20803;42.676;26.348;2023-08-08T00:25:29;2.10;;;1.90;;
34565;SDS011;20803;42.676;26.348;2023-08-08T00:27:54;2.50;;;2.30;;
34565;SDS011;20803;42.676;26.348;2023-08-08T00:30:20;2.00;;;1.80;;
34565;SDS011;20803;42.676;26.348;2023-08-08T00:32:45;2.60;;;1.87;;
34565;SDS011;20803;42.676;26.348;2023-08-08T00:35:11;2.30;;;2.00;;
34565;SDS011;20803;42.676;26.348;2023-08-08T00:37:36;2.00;;;1.67;;
34565;SDS011;20803;42.676;26.348;2023-08-08T00:40:02;2.00;;;1.80;;
34565;SDS011;20803;42.676;26.348;2023-08-08T00:42:27;2.10;;;1.70;;
34565;SDS011;20803;42.676;26.348;2023-08-08T00:44:53;1.90;;;1.70;;
34565;SDS011;20803;42.676;26.348;2023-08-08T00:47:18;1.70;;;1.60;;
34565;SDS011;20803;42.676;26.348;2023-08-08T00:49:44;2.00;;;1.80;;
34565;SDS011;20803;42.676;26.348;2023-08-08T00:52:11;2.10;;;1.70;;
34565;SDS011;20803;42.676;26.348;2023-08-08T00:54:38;2.53;;;1.67;;
34565;SDS011;20803;42.676;26.348;2023-08-08T00:57:03;3.70;;;2.03;;
34565;SDS011;20803;42.676;26.348;2023-08-08T00:59:29;2.70;;;2.00;;
34565;SDS011;20803;42.676;26.348;2023-08-08T01:01:54;2.90;;;1.87;;
34565;SDS011;20803;42.676;26.348;2023-08-08T01:04:22;2.20;;;2.00;;
34565;SDS011;20803;42.676;26.348;2023-08-08T01:12:05;4.23;;;2.57;;
34565;SDS011;20803;42.676;26.348;2023-08-08T01:14:33;3.87;;;2.57;;
34565;SDS011;20803;42.676;26.348;2023-08-08T01:17:00;2.93;;;2.40;;
34565;SDS011;20803;42.676;26.348;2023-08-08T01:19:28;3.07;;;2.20;;
34565;SDS011;20803;42.676;26.348;2023-08-08T01:22:01;3.13;;;2.03;;
34565;SDS011;20803;42.676;26.348;2023-08-08T01:24:29;3.13;;;2.60;;
34565;SDS011;20803;42.676;26.348;2023-08-08T01:26:57;3.47;;;2.40;;
34565;SDS011;20803;42.676;26.348;2023-08-08T01:29:25;3.17;;;2.30;;
34565;SDS011;20803;42.676;26.348;2023-08-08T01:31:50;3.33;;;2.47;;
34565;SDS011;20803;42.676;26.348;2023-08-08T01:34:16;2.70;;;2.10;;
34565;SDS011;20803;42.676;26.348;2023-08-08T01:39:10;3.70;;;2.23;;
34565;SDS011;20803;42.676;26.348;2023-08-08T01:41:39;4.77;;;2.13;;
34565;SDS011;20803;42.676;26.348;2023-08-08T01:44:06;2.50;;;2.30;;
34565;SDS011;20803;42.676;26.348;2023-08-08T01:46:32;2.43;;;2.10;;
34565;SDS011;20803;42.676;26.348;2023-08-08T01:48:58;2.50;;;2.20;;
34565;SDS011;20803;42.676;26.348;2023-08-08T01:51:24;2.40;;;2.20;;
34565;SDS011;20803;42.676;26.348;2023-08-08T01:53:51;2.50;;;2.30;;
34565;SDS011;20803;42.676;26.348;2023-08-08T01:56:17;2.43;;;2.17;;
34565;SDS011;20803;42.676;26.348;2023-08-08T01:58:42;2.20;;;1.90;;
34565;SDS011;20803;42.676;26.348;2023-08-08T02:01:08;2.23;;;2.03;;
34565;SDS011;20803;42.676;26.348;2023-08-08T02:03:33;2.67;;;2.23;;
34565;SDS011;20803;42.676;26.348;2023-08-08T02:05:58;8.50;;;2.50;;
34565;SDS011;20803;42.676;26.348;2023-08-08T02:08:24;2.67;;;2.47;;
34565;SDS011;20803;42.676;26.348;2023-08-08T02:10:49;3.13;;;2.10;;
34565;SDS011;20803;42.676;26.348;2023-08-08T02:13:15;2.13;;;1.93;;
34565;SDS011;20803;42.676;26.348;2023-08-08T02:15:40;3.63;;;2.13;;
34565;SDS011;20803;42.676;26.348;2023-08-08T02:18:05;2.73;;;2.37;;
34565;SDS011;20803;42.676;26.348;2023-08-08T02:20:35;2.47;;;2.27;;
34565;SDS011;20803;42.676;26.348;2023-08-08T02:23:00;2.80;;;1.97;;
34565;SDS011;20803;42.676;26.348;2023-08-08T02:25:25;3.57;;;2.23;;
34565;SDS011;20803;42.676;26.348;2023-08-08T02:27:51;2.30;;;2.10;;
34565;SDS011;20803;42.676;26.348;2023-08-08T02:30:16;3.23;;;2.27;;
34565;SDS011;20803;42.676;26.348;2023-08-08T02:32:42;2.43;;;2.00;;
34565;SDS011;20803;42.676;26.348;2023-08-08T02:35:07;2.10;;;1.83;;
34565;SDS011;20803;42.676;26.348;2023-08-08T02:37:33;2.33;;;1.80;;
34565;SDS011;20803;42.676;26.348;2023-08-08T02:39:58;2.60;;;2.30;;
34565;SDS011;20803;42.676;26.348;2023-08-08T02:42:24;2.10;;;1.90;;
34565;SDS011;20803;42.676;26.348;2023-08-08T02:44:49;2.33;;;1.90;;
34565;SDS011;20803;42.676;26.348;2023-08-08T02:47:15;2.80;;;1.80;;
34565;SDS011;20803;42.676;26.348;2023-08-08T02:49:40;2.10;;;1.90;;
34565;SDS011;20803;42.676;26.348;2023-08-08T02:52:06;2.20;;;2.00;;
34565;SDS011;20803;42.676;26.348;2023-08-08T02:54:31;1.87;;;1.77;;
34565;SDS011;20803;42.676;26.348;2023-08-08T02:56:57;3.70;;;2.00;;
34565;SDS011;20803;42.676;26.348;2023-08-08T02:59:22;2.50;;;2.00;;
34565;SDS011;20803;42.676;26.348;2023-08-08T03:01:47;2.53;;;1.90;;
34565;SDS011;20803;42.676;26.348;2023-08-08T03:04:14;2.20;;;1.97;;
34565;SDS011;20803;42.676;26.348;2023-08-08T03:06:39;2.00;;;1.80;;
34565;SDS011;20803;42.676;26.348;2023-08-08T03:09:05;3.43;;;2.00;;
34565;SDS011;20803;42.676;26.348;2023-08-08T03:11:30;2.00;;;1.80;;
34565;SDS011;20803;42.676;26.348;2023-08-08T03:13:56;2.00;;;1.83;;
34565;SDS011;20803;42.676;26.348;2023-08-08T03:16:21;3.50;;;1.90;;
34565;SDS011;20803;42.676;26.348;2023-08-08T03:18:47;1.63;;;1.53;;
34565;SDS011;20803;42.676;26.348;2023-08-08T03:21:12;2.93;;;1.60;;
34565;SDS011;20803;42.676;26.348;2023-08-08T03:23:37;1.83;;;1.53;;
34565;SDS011;20803;42.676;26.348;2023-08-08T03:26:03;3.33;;;1.27;;
34565;SDS011;20803;42.676;26.348;2023-08-08T03:28:28;1.60;;;1.50;;
34565;SDS011;20803;42.676;26.348;2023-08-08T03:30:54;2.47;;;1.50;;
34565;SDS011;20803;42.676;26.348;2023-08-08T03:33:19;2.43;;;1.30;;
34565;SDS011;20803;42.676;26.348;2023-08-08T03:35:45;1.70;;;1.43;;
34565;SDS011;20803;42.676;26.348;2023-08-08T03:38:10;1.40;;;1.27;;
34565;SDS011;20803;42.676;26.348;2023-08-08T03:40:35;1.67;;;1.40;;
34565;SDS011;20803;42.676;26.348;2023-08-08T03:43:01;2.10;;;1.50;;
34565;SDS011;20803;42.676;26.348;2023-08-08T03:45:27;2.10;;;1.50;;
34565;SDS011;20803;42.676;26.348;2023-08-08T03:47:52;1.47;;;1.37;;
34565;SDS011;20803;42.676;26.348;2023-08-08T03:50:18;1.70;;;1.50;;
34565;SDS011;20803;42.676;26.348;2023-08-08T03:52:43;1.70;;;1.60;;
34565;SDS011;20803;42.676;26.348;2023-08-08T03:55:09;2.53;;;1.70;;
34565;SDS011;20803;42.676;26.348;2023-08-08T03:57:34;2.47;;;1.50;;
34565;SDS011;20803;42.676;26.348;2023-08-08T04:00:00;1.70;;;1.60;;
34565;SDS011;20803;42.676;26.348;2023-08-08T04:02:25;1.70;;;1.47;;
34565;SDS011;20803;42.676;26.348;2023-08-08T04:04:51;2.63;;;1.37;;
34565;SDS011;20803;42.676;26.348;2023-08-08T04:07:16;2.43;;;1.40;;
34565;SDS011;20803;42.676;26.348;2023-08-08T04:09:42;2.37;;;1.33;;
34565;SDS011;20803;42.676;26.348;2023-08-08T04:12:07;1.40;;;1.30;;
34565;SDS011;20803;42.676;26.348;2023-08-08T04:14:33;1.40;;;1.30;;
34565;SDS011;20803;42.676;26.348;2023-08-08T04:16:59;2.73;;;1.30;;
34565;SDS011;20803;42.676;26.348;2023-08-08T04:19:24;1.90;;;1.40;;
34565;SDS011;20803;42.676;26.348;2023-08-08T04:21:49;3.20;;;1.60;;
34565;SDS011;20803;42.676;26.348;2023-08-08T04:24:15;1.97;;;1.77;;
34565;SDS011;20803;42.676;26.348;2023-08-08T04:26:41;2.30;;;2.00;;
34565;SDS011;20803;42.676;26.348;2023-08-08T04:29:06;1.57;;;1.33;;
34565;SDS011;20803;42.676;26.348;2023-08-08T04:31:32;4.00;;;2.30;;
34565;SDS011;20803;42.676;26.348;2023-08-08T04:33:57;2.00;;;1.73;;
34565;SDS011;20803;42.676;26.348;2023-08-08T04:36:29;2.40;;;1.83;;
34565;SDS011;20803;42.676;26.348;2023-08-08T04:38:54;2.90;;;1.70;;
34565;SDS011;20803;42.676;26.348;2023-08-08T04:41:20;2.33;;;1.87;;
34565;SDS011;20803;42.676;26.348;2023-08-08T04:43:46;1.50;;;1.40;;
34565;SDS011;20803;42.676;26.348;2023-08-08T04:46:11;2.33;;;1.70;;
34565;SDS011;20803;42.676;26.348;2023-08-08T04:48:37;2.27;;;1.77;;
34565;SDS011;20803;42.676;26.348;2023-08-08T04:51:05;1.90;;;1.70;;
34565;SDS011;20803;42.676;26.348;2023-08-08T04:53:31;1.93;;;1.43;;
34565;SDS011;20803;42.676;26.348;2023-08-08T04:55:57;2.20;;;1.60;;
34565;SDS011;20803;42.676;26.348;2023-08-08T04:58:23;1.70;;;1.60;;
34565;SDS011;20803;42.676;26.348;2023-08-08T05:00:48;4.07;;;1.47;;
34565;SDS011;20803;42.676;26.348;2023-08-08T05:03:15;2.50;;;1.70;;
34565;SDS011;20803;42.676;26.348;2023-08-08T05:05:41;1.70;;;1.43;;
34565;SDS011;20803;42.676;26.348;2023-08-08T05:08:09;1.57;;;1.40;;
34565;SDS011;20803;42.676;26.348;2023-08-08T05:10:39;3.20;;;1.20;;
34565;SDS011;20803;42.676;26.348;2023-08-08T05:13:04;1.40;;;1.30;;
34565;SDS011;20803;42.676;26.348;2023-08-08T05:15:30;1.60;;;1.10;;
34565;SDS011;20803;42.676;26.348;2023-08-08T05:17:55;1.20;;;1.10;;
34565;SDS011;20803;42.676;26.348;2023-08-08T05:20:21;1.67;;;0.90;;
34565;SDS011;20803;42.676;26.348;2023-08-08T05:22:47;0.53;;;0.53;;
34565;SDS011;20803;42.676;26.348;2023-08-08T05:25:12;1.37;;;0.80;;
34565;SDS011;20803;42.676;26.348;2023-08-08T05:27:38;0.87;;;0.80;;
34565;SDS011;20803;42.676;26.348;2023-08-08T05:30:04;6.67;;;1.10;;
34565;SDS011;20803;42.676;26.348;2023-08-08T05:32:30;1.40;;;0.80;;
34565;SDS011;20803;42.676;26.348;2023-08-08T05:34:56;1.10;;;0.67;;
34565;SDS011;20803;42.676;26.348;2023-08-08T05:37:22;1.10;;;0.43;;
34565;SDS011;20803;42.676;26.348;2023-08-08T05:39:48;3.73;;;0.83;;
34565;SDS011;20803;42.676;26.348;2023-08-08T05:42:14;10.43;;;1.50;;
34565;SDS011;20803;42.676;26.348;2023-08-08T05:44:39;1.90;;;0.90;;
34565;SDS011;20803;42.676;26.348;2023-08-08T05:47:06;1.13;;;0.70;;
34565;SDS011;20803;42.676;26.348;2023-08-08T05:49:32;7.67;;;1.13;;
34565;SDS011;20803;42.676;26.348;2023-08-08T05:51:57;0.80;;;0.80;;
34565;SDS011;20803;42.676;26.348;2023-08-08T05:54:23;0.97;;;0.80;;
34565;SDS011;20803;42.676;26.348;2023-08-08T05:56:48;2.10;;;1.27;;
34565;SDS011;20803;42.676;26.348;2023-08-08T05:59:14;2.27;;;1.00;;
34565;SDS011;20803;42.676;26.348;2023-08-08T06:01:39;1.10;;;1.00;;
34565;SDS011;20803;42.676;26.348;2023-08-08T06:04:05;3.47;;;1.00;;
34565;SDS011;20803;42.676;26.348;2023-08-08T06:06:30;1.77;;;0.67;;
34565;SDS011;20803;42.676;26.348;2023-08-08T06:08:55;0.67;;;0.67;;
34565;SDS011;20803;42.676;26.348;2023-08-08T06:11:21;1.00;;;0.90;;
34565;SDS011;20803;42.676;26.348;2023-08-08T06:13:47;1.10;;;1.00;;
34565;SDS011;20803;42.676;26.348;2023-08-08T06:16:13;1.67;;;1.30;;
34565;SDS011;20803;42.676;26.348;2023-08-08T06:18:40;1.83;;;1.20;;
34565;SDS011;20803;42.676;26.348;2023-08-08T06:21:05;1.60;;;1.30;;
34565;SDS011;20803;42.676;26.348;2023-08-08T06:23:30;1.70;;;1.43;;
34565;SDS011;20803;42.676;26.348;2023-08-08T06:25:56;1.13;;;0.83;;
34565;SDS011;20803;42.676;26.348;2023-08-08T06:28:23;3.33;;;1.30;;
34565;SDS011;20803;42.676;26.348;2023-08-08T06:30:48;1.30;;;1.20;;
34565;SDS011;20803;42.676;26.348;2023-08-08T06:33:14;1.10;;;1.00;;
34565;SDS011;20803;42.676;26.348;2023-08-08T06:35:39;1.40;;;1.30;;
34565;SDS011;20803;42.676;26.348;2023-08-08T06:38:05;1.63;;;1.30;;
34565;SDS011;20803;42.676;26.348;2023-08-08T06:40:30;5.43;;;1.53;;
34565;SDS011;20803;42.676;26.348;2023-08-08T06:42:56;1.60;;;1.50;;
34565;SDS011;20803;42.676;26.348;2023-08-08T06:45:21;1.40;;;1.30;;
34565;SDS011;20803;42.676;26.348;2023-08-08T06:47:46;2.17;;;1.70;;
34565;SDS011;20803;42.676;26.348;2023-08-08T06:50:12;2.00;;;1.80;;
34565;SDS011;20803;42.676;26.348;2023-08-08T06:52:40;1.53;;;1.43;;
34565;SDS011;20803;42.676;26.348;2023-08-08T06:55:05;1.77;;;1.67;;
34565;SDS011;20803;42.676;26.348;2023-08-08T06:57:32;2.50;;;2.00;;
34565;SDS011;20803;42.676;26.348;2023-08-08T06:59:58;2.23;;;1.80;;
34565;SDS011;20803;42.676;26.348;2023-08-08T07:02:24;2.27;;;2.07;;
34565;SDS011;20803;42.676;26.348;2023-08-08T07:04:49;2.87;;;1.73;;
34565;SDS011;20803;42.676;26.348;2023-08-08T07:07:15;2.57;;;2.00;;
34565;SDS011;20803;42.676;26.348;2023-08-08T07:09:40;2.20;;;2.00;;
34565;SDS011;20803;42.676;26.348;2023-08-08T07:12:06;2.73;;;2.07;;
34565;SDS011;20803;42.676;26.348;2023-08-08T07:14:32;3.60;;;2.17;;
34565;SDS011;20803;42.676;26.348;2023-08-08T07:16:58;2.93;;;1.90;;
34565;SDS011;20803;42.676;26.348;2023-08-08T07:19:23;2.30;;;2.10;;
34565;SDS011;20803;42.676;26.348;2023-08-08T07:21:49;2.47;;;2.00;;
34565;SDS011;20803;42.676;26.348;2023-08-08T07:24:15;2.10;;;1.90;;
34565;SDS011;20803;42.676;26.348;2023-08-08T07:26:41;3.80;;;1.90;;
34565;SDS011;20803;42.676;26.348;2023-08-08T07:29:07;5.23;;;2.33;;
34565;SDS011;20803;42.676;26.348;2023-08-08T07:31:32;2.57;;;2.20;;
34565;SDS011;20803;42.676;26.348;2023-08-08T07:33:58;3.03;;;2.07;;
34565;SDS011;20803;42.676;26.348;2023-08-08T07:36:23;2.70;;;2.30;;
34565;SDS011;20803;42.676;26.348;2023-08-08T07:38:49;2.57;;;2.20;;
34565;SDS011;20803;42.676;26.348;2023-08-08T07:41:14;2.70;;;2.43;;
34565;SDS011;20803;42.676;26.348;2023-08-08T07:43:40;4.50;;;2.10;;
34565;SDS011;20803;42.676;26.348;2023-08-08T07:46:05;2.80;;;2.17;;
34565;SDS011;20803;42.676;26.348;2023-08-08T07:48:31;3.60;;;2.10;;
34565;SDS011;20803;42.676;26.348;2023-08-08T07:50:56;7.53;;;1.77;;
34565;SDS011;20803;42.676;26.348;2023-08-08T07:53:21;2.10;;;1.90;;
34565;SDS011;20803;42.676;26.348;2023-08-08T07:55:47;4.10;;;2.20;;
34565;SDS011;20803;42.676;26.348;2023-08-08T07:58:12;2.53;;;2.10;;
34565;SDS011;20803;42.676;26.348;2023-08-08T08:00:38;2.40;;;2.20;;
34565;SDS011;20803;42.676;26.348;2023-08-08T08:03:04;3.57;;;2.10;;
34565;SDS011;20803;42.676;26.348;2023-08-08T08:05:30;2.80;;;2.20;;
34565;SDS011;20803;42.676;26.348;2023-08-08T08:07:55;4.33;;;2.33;;
34565;SDS011;20803;42.676;26.348;2023-08-08T08:10:21;4.43;;;2.33;;
34565;SDS011;20803;42.676;26.348;2023-08-08T08:12:46;5.47;;;2.47;;
34565;SDS011;20803;42.676;26.348;2023-08-08T08:15:11;3.30;;;2.40;;
34565;SDS011;20803;42.676;26.348;2023-08-08T08:17:38;3.17;;;2.47;;
34565;SDS011;20803;42.676;26.348;2023-08-08T08:20:04;2.93;;;2.30;;
34565;SDS011;20803;42.676;26.348;2023-08-08T08:22:32;2.47;;;2.13;;
34565;SDS011;20803;42.676;26.348;2023-08-08T08:24:58;3.10;;;2.53;;
34565;SDS011;20803;42.676;26.348;2023-08-08T08:27:23;4.00;;;2.67;;
34565;SDS011;20803;42.676;26.348;2023-08-08T08:29:48;3.90;;;2.77;;
34565;SDS011;20803;42.676;26.348;2023-08-08T08:32:14;3.47;;;2.60;;
34565;SDS011;20803;42.676;26.348;2023-08-08T08:34:39;3.47;;;2.47;;
34565;SDS011;20803;42.676;26.348;2023-08-08T08:37:05;2.80;;;2.40;;
34565;SDS011;20803;42.676;26.348;2023-08-08T08:39:30;3.23;;;2.60;;
34565;SDS011;20803;42.676;26.348;2023-08-08T08:41:58;3.53;;;2.77;;
34565;SDS011;20803;42.676;26.348;2023-08-08T08:44:32;3.80;;;2.53;;
34565;SDS011;20803;42.676;26.348;2023-08-08T08:46:59;2.90;;;2.53;;
34565;SDS011;20803;42.676;26.348;2023-08-08T08:49:35;3.97;;;2.47;;
34565;SDS011;20803;42.676;26.348;2023-08-08T08:52:03;3.33;;;3.03;;
34565;SDS011;20803;42.676;26.348;2023-08-08T08:54:30;3.63;;;3.00;;
34565;SDS011;20803;42.676;26.348;2023-08-08T08:56:56;3.17;;;2.67;;
34565;SDS011;20803;42.676;26.348;2023-08-08T08:59:22;2.70;;;2.50;;
34565;SDS011;20803;42.676;26.348;2023-08-08T09:01:49;3.07;;;2.77;;
34565;SDS011;20803;42.676;26.348;2023-08-08T09:04:16;3.33;;;2.67;;
34565;SDS011;20803;42.676;26.348;2023-08-08T09:06:44;3.63;;;2.67;;
34565;SDS011;20803;42.676;26.348;2023-08-08T09:09:11;4.03;;;3.13;;
34565;SDS011;20803;42.676;26.348;2023-08-08T09:11:38;3.37;;;2.57;;
34565;SDS011;20803;42.676;26.348;2023-08-08T09:14:14;3.00;;;2.70;;
34565;SDS011;20803;42.676;26.348;2023-08-08T09:16:42;2.90;;;2.47;;
34565;SDS011;20803;42.676;26.348;2023-08-08T09:19:08;3.00;;;2.70;;
34565;SDS011;20803;42.676;26.348;2023-08-08T09:21:33;5.37;;;2.70;;
34565;SDS011;20803;42.676;26.348;2023-08-08T09:23:58;2.73;;;2.40;;
34565;SDS011;20803;42.676;26.348;2023-08-08T09:26:24;3.00;;;2.67;;
34565;SDS011;20803;42.676;26.348;2023-08-08T09:28:50;3.30;;;3.00;;
34565;SDS011;20803;42.676;26.348;2023-08-08T09:31:16;2.20;;;2.00;;
34565;SDS011;20803;42.676;26.348;2023-08-08T09:33:42;3.70;;;3.00;;
34565;SDS011;20803;42.676;26.348;2023-08-08T09:36:13;2.23;;;2.03;;
34565;SDS011;20803;42.676;26.348;2023-08-08T09:38:41;2.40;;;2.00;;
34565;SDS011;20803;42.676;26.348;2023-08-08T09:41:07;1.90;;;1.80;;
34565;SDS011;20803;42.676;26.348;2023-08-08T09:43:33;2.50;;;2.23;;
34565;SDS011;20803;42.676;26.348;2023-08-08T09:45:58;9.43;;;2.80;;
34565;SDS011;20803;42.676;26.348;2023-08-08T09:48:29;2.03;;;1.70;;
34565;SDS011;20803;42.676;26.348;2023-08-08T09:50:57;1.77;;;1.50;;
34565;SDS011;20803;42.676;26.348;2023-08-08T09:53:27;2.33;;;1.50;;
34565;SDS011;20803;42.676;26.348;2023-08-08T09:55:56;2.83;;;1.37;;
34565;SDS011;20803;42.676;26.348;2023-08-08T09:58:22;2.33;;;1.13;;
34565;SDS011;20803;42.676;26.348;2023-08-08T10:00:49;1.77;;;1.23;;
34565;SDS011;20803;42.676;26.348;2023-08-08T10:03:16;2.00;;;1.60;;
34565;SDS011;20803;42.676;26.348;2023-08-08T10:05:42;4.43;;;1.50;;
34565;SDS011;20803;42.676;26.348;2023-08-08T10:08:08;2.03;;;1.40;;
34565;SDS011;20803;42.676;26.348;2023-08-08T10:10:34;1.03;;;0.97;;
34565;SDS011;20803;42.676;26.348;2023-08-08T10:13:00;2.20;;;1.30;;
34565;SDS011;20803;42.676;26.348;2023-08-08T10:15:26;1.30;;;1.20;;
34565;SDS011;20803;42.676;26.348;2023-08-08T10:17:53;1.30;;;1.20;;
34565;SDS011;20803;42.676;26.348;2023-08-08T10:20:20;3.63;;;3.23;;
34565;SDS011;20803;42.676;26.348;2023-08-08T10:22:46;1.40;;;1.30;;
34565;SDS011;20803;42.676;26.348;2023-08-08T10:25:25;2.43;;;1.07;;
34565;SDS011;20803;42.676;26.348;2023-08-08T10:28:05;1.77;;;1.10;;
34565;SDS011;20803;42.676;26.348;2023-08-08T10:33:14;1.10;;;1.00;;
34565;SDS011;20803;42.676;26.348;2023-08-08T10:38:22;2.53;;;1.47;;
34565;SDS011;20803;42.676;26.348;2023-08-08T10:40:53;1.40;;;1.27;;
34565;SDS011;20803;42.676;26.348;2023-08-08T10:43:24;1.40;;;0.80;;
34565;SDS011;20803;42.676;26.348;2023-08-08T10:45:51;1.40;;;1.23;;
34565;SDS011;20803;42.676;26.348;2023-08-08T10:48:16;1.53;;;1.20;;
34565;SDS011;20803;42.676;26.348;2023-08-08T10:50:43;1.80;;;0.93;;
34565;SDS011;20803;42.676;26.348;2023-08-08T10:53:09;1.83;;;1.30;;
34565;SDS011;20803;42.676;26.348;2023-08-08T10:55:36;3.60;;;1.63;;
34565;SDS011;20803;42.676;26.348;2023-08-08T10:58:06;1.80;;;1.30;;
34565;SDS011;20803;42.676;26.348;2023-08-08T11:00:36;1.83;;;1.20;;
34565;SDS011;20803;42.676;26.348;2023-08-08T11:03:04;2.17;;;1.50;;
34565;SDS011;20803;42.676;26.348;2023-08-08T11:05:31;1.53;;;1.40;;
34565;SDS011;20803;42.676;26.348;2023-08-08T11:07:57;2.27;;;1.30;;
34565;SDS011;20803;42.676;26.348;2023-08-08T11:10:24;1.33;;;1.10;;
34565;SDS011;20803;42.676;26.348;2023-08-08T11:13:00;1.50;;;1.20;;
34565;SDS011;20803;42.676;26.348;2023-08-08T11:15:28;1.87;;;1.17;;
34565;SDS011;20803;42.676;26.348;2023-08-08T11:17:57;2.33;;;1.37;;
34565;SDS011;20803;42.676;26.348;2023-08-08T11:20:23;1.20;;;1.10;;
34565;SDS011;20803;42.676;26.348;2023-08-08T11:22:52;0.97;;;0.93;;
34565;SDS011;20803;42.676;26.348;2023-08-08T11:25:20;2.17;;;1.20;;
34565;SDS011;20803;42.676;26.348;2023-08-08T11:28:48;1.50;;;1.40;;
34565;SDS011;20803;42.676;26.348;2023-08-08T11:31:15;1.20;;;1.07;;
34565;SDS011;20803;42.676;26.348;2023-08-08T11:33:40;2.47;;;1.50;;
34565;SDS011;20803;42.676;26.348;2023-08-08T11:36:06;1.27;;;1.17;;
34565;SDS011;20803;42.676;26.348;2023-08-08T11:38:32;1.30;;;1.20;;
34565;SDS011;20803;42.676;26.348;2023-08-08T11:40:58;1.90;;;1.40;;
34565;SDS011;20803;42.676;26.348;2023-08-08T11:43:24;1.77;;;1.50;;
34565;SDS011;20803;42.676;26.348;2023-08-08T11:45:50;3.10;;;1.30;;
34565;SDS011;20803;42.676;26.348;2023-08-08T11:48:20;3.50;;;1.40;;
34565;SDS011;20803;42.676;26.348;2023-08-08T11:50:46;3.00;;;1.50;;
34565;SDS011;20803;42.676;26.348;2023-08-08T11:53:12;1.40;;;1.30;;
34565;SDS011;20803;42.676;26.348;2023-08-08T11:55:37;2.37;;;1.17;;
34565;SDS011;20803;42.676;26.348;2023-08-08T11:58:03;4.50;;;1.40;;
34565;SDS011;20803;42.676;26.348;2023-08-08T12:00:30;1.57;;;1.47;;
34565;SDS011;20803;42.676;26.348;2023-08-08T12:02:56;1.40;;;1.30;;
34565;SDS011;20803;42.676;26.348;2023-08-08T12:05:22;2.40;;;2.20;;
34565;SDS011;20803;42.676;26.348;2023-08-08T12:07:48;2.13;;;1.90;;
34565;SDS011;20803;42.676;26.348;2023-08-08T12:10:15;1.47;;;1.37;;
34565;SDS011;20803;42.676;26.348;2023-08-08T12:12:43;2.57;;;1.27;;
34565;SDS011;20803;42.676;26.348;2023-08-08T12:18:48;4.93;;;1.57;;
34565;SDS011;20803;42.676;26.348;2023-08-08T12:21:13;2.00;;;1.70;;
34565;SDS011;20803;42.676;26.348;2023-08-08T12:23:39;1.50;;;1.37;;
34565;SDS011;20803;42.676;26.348;2023-08-08T12:26:04;3.27;;;1.60;;
34565;SDS011;20803;42.676;26.348;2023-08-08T12:28:31;2.07;;;1.60;;
34565;SDS011;20803;42.676;26.348;2023-08-08T12:30:57;2.27;;;1.50;;
34565;SDS011;20803;42.676;26.348;2023-08-08T12:33:22;2.70;;;1.40;;
34565;SDS011;20803;42.676;26.348;2023-08-08T12:35:48;1.40;;;1.30;;
34565;SDS011;20803;42.676;26.348;2023-08-08T12:38:14;2.57;;;1.50;;
34565;SDS011;20803;42.676;26.348;2023-08-08T12:40:39;2.10;;;1.07;;
34565;SDS011;20803;42.676;26.348;2023-08-08T12:43:05;3.30;;;1.93;;
34565;SDS011;20803;42.676;26.348;2023-08-08T12:45:31;1.90;;;1.70;;
34565;SDS011;20803;42.676;26.348;2023-08-08T12:47:56;8.40;;;1.63;;
34565;SDS011;20803;42.676;26.348;2023-08-08T12:50:22;1.40;;;1.30;;
34565;SDS011;20803;42.676;26.348;2023-08-08T12:52:48;1.53;;;1.43;;
34565;SDS011;20803;42.676;26.348;2023-08-08T12:55:13;2.10;;;1.60;;
34565;SDS011;20803;42.676;26.348;2023-08-08T12:57:41;1.60;;;1.50;;
34565;SDS011;20803;42.676;26.348;2023-08-08T13:00:07;1.60;;;1.40;;
34565;SDS011;20803;42.676;26.348;2023-08-08T13:02:33;2.03;;;1.60;;
34565;SDS011;20803;42.676;26.348;2023-08-08T13:04:59;1.93;;;1.40;;
34565;SDS011;20803;42.676;26.348;2023-08-08T13:07:24;2.87;;;1.63;;
34565;SDS011;20803;42.676;26.348;2023-08-08T13:09:50;3.00;;;1.60;;
34565;SDS011;20803;42.676;26.348;2023-08-08T13:12:16;3.50;;;1.77;;
34565;SDS011;20803;42.676;26.348;2023-08-08T13:14:41;2.30;;;1.53;;
34565;SDS011;20803;42.676;26.348;2023-08-08T13:17:07;1.60;;;1.50;;
34565;SDS011;20803;42.676;26.348;2023-08-08T13:19:32;1.60;;;1.50;;
34565;SDS011;20803;42.676;26.348;2023-08-08T13:21:58;1.87;;;1.60;;
34565;SDS011;20803;42.676;26.348;2023-08-08T13:24:23;1.50;;;1.40;;
34565;SDS011;20803;42.676;26.348;2023-08-08T13:26:49;4.07;;;1.80;;
34565;SDS011;20803;42.676;26.348;2023-08-08T13:29:15;1.70;;;1.60;;
34565;SDS011;20803;42.676;26.348;2023-08-08T13:31:40;8.37;;;1.70;;
34565;SDS011;20803;42.676;26.348;2023-08-08T13:34:06;2.33;;;2.10;;
34565;SDS011;20803;42.676;26.348;2023-08-08T13:36:31;2.70;;;1.40;;
34565;SDS011;20803;42.676;26.348;2023-08-08T13:38:57;2.10;;;1.60;;
34565;SDS011;20803;42.676;26.348;2023-08-08T13:41:23;1.50;;;1.40;;
34565;SDS011;20803;42.676;26.348;2023-08-08T13:43:48;2.80;;;1.80;;
34565;SDS011;20803;42.676;26.348;2023-08-08T13:46:14;1.50;;;1.40;;
34565;SDS011;20803;42.676;26.348;2023-08-08T13:48:39;1.83;;;1.73;;
34565;SDS011;20803;42.676;26.348;2023-08-08T13:51:05;2.00;;;1.70;;
34565;SDS011;20803;42.676;26.348;2023-08-08T13:53:30;1.60;;;1.50;;
34565;SDS011;20803;42.676;26.348;2023-08-08T13:55:56;3.10;;;1.53;;
34565;SDS011;20803;42.676;26.348;2023-08-08T13:58:21;2.43;;;1.60;;
34565;SDS011;20803;42.676;26.348;2023-08-08T14:00:50;1.50;;;1.40;;
34565;SDS011;20803;42.676;26.348;2023-08-08T14:03:16;1.87;;;1.60;;
34565;SDS011;20803;42.676;26.348;2023-08-08T14:05:41;2.40;;;1.67;;
34565;SDS011;20803;42.676;26.348;2023-08-08T14:08:07;1.90;;;1.60;;
34565;SDS011;20803;42.676;26.348;2023-08-08T14:10:33;1.60;;;1.50;;
34565;SDS011;20803;42.676;26.348;2023-08-08T14:12:58;6.57;;;2.97;;
34565;SDS011;20803;42.676;26.348;2023-08-08T14:15:24;4.67;;;3.20;;
34565;SDS011;20803;42.676;26.348;2023-08-08T14:17:49;7.20;;;4.30;;
34565;SDS011;20803;42.676;26.348;2023-08-08T14:20:15;6.90;;;4.40;;
34565;SDS011;20803;42.676;26.348;2023-08-08T14:22:43;5.90;;;3.43;;
34565;SDS011;20803;42.676;26.348;2023-08-08T14:25:12;4.80;;;1.97;;
34565;SDS011;20803;42.676;26.348;2023-08-08T14:27:38;2.40;;;1.73;;
34565;SDS011;20803;42.676;26.348;2023-08-08T14:30:03;2.80;;;2.03;;
34565;SDS011;20803;42.676;26.348;2023-08-08T14:32:29;2.80;;;2.20;;
34565;SDS011;20803;42.676;26.348;2023-08-08T14:34:55;1.90;;;1.70;;
34565;SDS011;20803;42.676;26.348;2023-08-08T14:37:20;2.13;;;1.90;;
34565;SDS011;20803;42.676;26.348;2023-08-08T14:39:46;2.10;;;1.60;;
34565;SDS011;20803;42.676;26.348;2023-08-08T14:42:12;1.60;;;1.50;;
34565;SDS011;20803;42.676;26.348;2023-08-08T14:44:37;1.83;;;1.73;;